Van Vleet, MS (38877)

1:23 PM CDT on July 24, 2014 (GMT -0500)
Shannon, MS (KMSSHANN2) Elev 292 ft | 34.14 °N, 88.72 °W | Change Station

Current weather conditions updated 9 minutes ago

Partly Cloudy
Partly Cloudy
87.6 °F
Feels Like 94 °F
N
0.0
Wind Variable Wind from NE

Today is forecast to be Cooler than yesterday.

Today
High -- | Low -- °F
--% Chance of Precip.
Yesterday
High -- | Low -- °F
Precip. -- in
6:01 AM 8:02 PM
Waning Crescent, 4% visible
Pressure 30.01 in
Visibility 7.0 miles
Clouds Few 2800 ft
Few 4800 ft
Heat Index 94 °F
Dew Point 72 °F
Humidity 59%
Rainfall 0.00 in
Snow Depth Not available.
UV 11 out of 12
Pollen 3.90 out of 12
Air Quality Not available.
Flu Activity Not available.
METAR KM40 241835Z AUTO 29004KT 7SM FEW028 FEW048 32/22 A3001 RMK AO2

More Conditions Fewer Conditions

Pressure 30.01 in
Visibility 7.0 miles
Clouds Few 2800 ft
Few 4800 ft
Heat Index 94 °F
Dew Point 72 °F
Humidity 59%
Rainfall 0.00 in
Snow Depth Not available.
UV 11 out of 12
Pollen 3.90 out of 12
Air Quality Not available.
Flu Activity Not available.
METAR KM40 241835Z AUTO 29004KT 7SM FEW028 FEW048 32/22 A3001 RMK AO2

More Conditions Fewer Conditions

10-Day Weather Forecast

Almanac

Astronomy

Jul. 24, 2014 Rise Set
Actual Time 6:01 AM CDT 8:02 PM CDT
Civil Twilight 5:33 AM CDT 8:30 PM CDT
Nautical Twilight 4:59 AM CDT 9:04 PM CDT
Astronomical Twilight 4:23 AM CDT 9:40 PM CDT
Moon 4:08 AM CDT 6:18 PM CDT
Length of Visible Light 14h 56m
Length of Day
14h 00m
Tomorrow will be 1m 22s shorter.
Waning Crescent, 4% of the Moon is Illuminated
Today
Waning Crescent
Jul 26
New
Aug 3
First Quarter
Aug 10
Full
Aug 17
Last Quarter

Today's Extremes

State Highs State Lows

Community

WunderPhotos

Upload Photos

1,737,088 photos uploaded!

Nearby

Snow Depth

Station Depth Elevation
No new snow has been reported.

Earthquake Activity

City Distance Mag. Time & Date
No recent earthquake activity has been reported nearby.
Minimum magnitude displayed is 2.5.

Coastal Water Temperatures

Place Temperature
No Stations Reporting

Nearby Weather Stations

Station Location Temp. Heat Index Dew Point Humidity Wind Precip. Elev Updated Type
RAWS HIGHWAY 41 MS, Algoma, MS 88 °F 97 °F 74 °F 63% ESE  at  2 mph 0.00 in / hr 319 ft 11:52 AM CDT MADIS
Shannon, MS, Shannon, MS 87.6 °F 94 °F 72 °F 59% NE  at  0.0 mph - / hr 292 ft 1:13 PM CDT Normal
MesoWest STARKVILLE , West Point, MS 83 °F 88 °F 72 °F 69% NW  at  4 mph 0.00 in / hr 339 ft 12:00 PM CDT MADIS

Show More Stations Show Fewer Stations